createdAt,value
2019-04-24T00:00:54.685Z,97.52
2019-04-24T00:01:44.704Z,97.71
2019-04-24T00:02:49.605Z,97.71
2019-04-24T00:04:01.218Z,97.61
2019-04-24T00:04:59.227Z,98.10
2019-04-24T00:06:07.851Z,98.00
2019-04-24T00:06:44.250Z,97.80
2019-04-24T00:07:50.430Z,98.10
2019-04-24T00:08:45.992Z,98.38
2019-04-24T00:09:39.866Z,98.28
2019-04-24T00:11:08.312Z,98.33
2019-04-24T00:14:50.675Z,98.47
2019-04-24T00:14:56.271Z,98.38
2019-04-24T00:15:49.711Z,98.76
2019-04-24T00:16:50.444Z,98.33
2019-04-24T00:17:56.051Z,99.00
2019-04-24T00:18:52.769Z,98.62
2019-04-24T00:19:43.699Z,99.19
2019-04-24T00:20:53.345Z,99.00
2019-04-24T00:21:52.995Z,99.00
2019-04-24T00:22:51.958Z,99.10
2019-04-24T00:24:03.659Z,99.10
2019-04-24T00:24:47.089Z,99.19
2019-04-24T00:25:43.619Z,99.19
2019-04-24T00:26:45.313Z,98.91
2019-04-24T00:27:44.317Z,99.38
2019-04-24T00:28:55.843Z,99.19
2019-04-24T00:30:50.270Z,98.91
2019-04-24T00:31:51.514Z,99.10
2019-04-24T00:32:50.674Z,99.29
2019-04-24T00:33:54.754Z,99.29
2019-04-24T00:34:50.288Z,99.10
2019-04-24T00:36:21.066Z,99.10
2019-04-24T00:37:47.608Z,98.81
2019-04-24T00:38:56.903Z,98.91
2019-04-24T00:39:46.046Z,98.91
2019-04-24T00:40:46.063Z,99.48
2019-04-24T00:41:47.897Z,99.38
2019-04-24T00:42:46.089Z,99.29
2019-04-24T00:44:40.390Z,99.48
2019-04-24T00:45:50.774Z,99.29
2019-04-24T00:46:51.199Z,99.38
2019-04-24T00:47:54.128Z,99.10
2019-04-24T00:48:46.422Z,99.19
2019-04-24T00:49:44.269Z,99.19
2019-04-24T00:50:58.988Z,99.10
2019-04-24T00:51:44.619Z,98.81
2019-04-24T00:53:03.230Z,99.00
2019-04-24T00:54:05.445Z,99.10
2019-04-24T00:54:39.112Z,99.29
2019-04-24T00:55:52.748Z,99.19
2019-04-24T00:57:48.560Z,99.19
2019-04-24T00:59:54.861Z,99.29
2019-04-24T01:00:51.699Z,99.29
2019-04-24T01:01:56.326Z,99.19
2019-04-24T01:02:43.469Z,99.10
2019-04-24T01:04:03.520Z,99.29
2019-04-24T01:05:07.463Z,99.19
2019-04-24T01:06:55.081Z,99.38
2019-04-24T01:08:43.770Z,99.10
2019-04-24T01:09:50.294Z,99.10
2019-04-24T01:10:39.916Z,99.29
2019-04-24T01:11:39.525Z,99.10
2019-04-24T01:13:44.999Z,99.10
2019-04-24T01:14:45.127Z,99.29
2019-04-24T01:17:39.433Z,99.87
2019-04-24T01:18:41.010Z,99.67
2019-04-24T01:20:00.255Z,99.29
2019-04-24T01:20:57.731Z,99.38
2019-04-24T01:21:52.667Z,99.29
2019-04-24T01:23:49.567Z,99.96
2019-04-24T01:24:56.464Z,99.77
2019-04-24T01:25:45.734Z,99.19
2019-04-24T01:26:58.160Z,99.77
2019-04-24T01:27:56.227Z,99.87
2019-04-24T01:28:48.596Z,99.96
2019-04-24T01:30:02.329Z,99.77
2019-04-24T01:31:44.895Z,99.29
2019-04-24T01:32:58.751Z,99.38
2019-04-24T01:33:49.238Z,98.91
2019-04-24T01:34:48.232Z,99.29
2019-04-24T01:35:48.519Z,99.10
2019-04-24T01:38:50.838Z,99.19
2019-04-24T01:40:52.600Z,99.96
2019-04-24T01:41:47.528Z,99.77
2019-04-24T01:42:59.810Z,99.38
2019-04-24T01:45:06.794Z,99.10
2019-04-24T01:45:47.629Z,99.67
2019-04-24T01:46:44.806Z,99.96
2019-04-24T01:47:51.187Z,99.10
2019-04-24T01:48:53.646Z,99.87
2019-04-24T01:50:38.560Z,99.87
2019-04-24T01:52:01.725Z,99.29
2019-04-24T01:52:48.289Z,99.19
2019-04-24T01:54:03.886Z,99.38
2019-04-24T01:54:48.897Z,99.77
2019-04-24T01:55:31.427Z,99.19
2019-04-24T01:56:48.208Z,99.67
2019-04-24T01:57:46.933Z,99.10
2019-04-24T01:58:42.539Z,99.38
2019-04-24T02:00:53.865Z,99.87
2019-04-24T02:00:55.812Z,99.87
2019-04-24T02:01:41.702Z,99.96
2019-04-24T02:03:41.917Z,99.67
2019-04-24T02:05:50.200Z,99.58
2019-04-24T02:06:41.376Z,99.67
2019-04-24T02:08:39.705Z,99.29
2019-04-24T02:10:02.255Z,99.58
2019-04-24T02:12:00.219Z,99.87
2019-04-24T02:13:11.006Z,99.67
2019-04-24T02:13:41.153Z,99.48
2019-04-24T02:14:49.705Z,99.58
2019-04-24T02:15:55.488Z,99.67
2019-04-24T02:16:44.782Z,99.67
2019-04-24T02:17:51.934Z,99.87
2019-04-24T02:18:49.642Z,99.67
2019-04-24T02:20:37.434Z,99.67
2019-04-24T02:22:50.488Z,99.87
2019-04-24T02:24:43.611Z,99.48
2019-04-24T02:26:35.741Z,99.77
2019-04-24T02:28:12.904Z,99.96
2019-04-24T02:28:42.649Z,99.96
2019-04-24T02:29:38.270Z,99.48
2019-04-24T02:31:48.607Z,99.62
2019-04-24T02:33:10.012Z,99.87
2019-04-24T02:36:04.699Z,99.81
2019-04-24T02:36:44.864Z,99.96
2019-04-24T02:37:55.870Z,99.99
2019-04-24T02:39:04.838Z,99.96
2019-04-24T02:40:48.919Z,99.81
2019-04-24T02:46:51.860Z,99.72
2019-04-24T02:49:17.112Z,99.72
2019-04-24T02:50:51.569Z,99.72
2019-04-24T02:52:55.677Z,99.81
2019-04-24T02:53:53.145Z,99.99
2019-04-24T02:55:45.052Z,99.91
2019-04-24T02:56:58.549Z,99.91
2019-04-24T02:57:47.103Z,99.99
2019-04-24T02:58:56.851Z,99.91
2019-04-24T02:59:56.400Z,99.99
2019-04-24T03:02:09.712Z,99.99
2019-04-24T03:03:06.183Z,99.99
2019-04-24T03:03:55.098Z,99.99
2019-04-24T03:07:06.345Z,99.72
2019-04-24T03:08:16.549Z,99.99
2019-04-24T03:09:04.824Z,99.91
2019-04-24T03:10:12.276Z,99.91
2019-04-24T03:11:19.244Z,99.81
2019-04-24T03:12:26.778Z,99.81
2019-04-24T03:15:48.281Z,99.86
2019-04-24T03:17:20.132Z,99.99
2019-04-24T03:17:59.803Z,99.99
2019-04-24T03:19:29.611Z,99.99
2019-04-24T03:19:59.764Z,99.96
2019-04-24T03:22:08.819Z,99.99
2019-04-24T03:22:54.394Z,99.99
2019-04-24T03:26:43.952Z,99.96
2019-04-24T03:27:17.272Z,99.99
2019-04-24T03:29:02.636Z,99.99
2019-04-24T03:29:54.371Z,99.86
2019-04-24T03:33:27.739Z,99.96
2019-04-24T03:34:19.114Z,99.99
2019-04-24T03:36:18.505Z,99.67
2019-04-24T03:38:22.713Z,99.48
2019-04-24T03:50:04.161Z,99.10
2019-04-24T03:51:38.971Z,99.19
2019-04-24T03:52:07.158Z,99.19
2019-04-24T03:52:54.520Z,99.99
2019-04-24T03:54:59.327Z,99.86
2019-04-24T03:56:41.577Z,99.19
2019-04-24T04:00:17.115Z,99.48
2019-04-24T04:03:49.211Z,98.90
2019-04-24T04:05:36.296Z,99.10
2019-04-24T04:09:01.220Z,98.75
2019-04-24T04:10:55.483Z,99.14
2019-04-24T04:12:12.768Z,99.24
2019-04-24T04:13:50.473Z,98.95
2019-04-24T04:15:04.837Z,98.38
2019-04-24T04:15:52.675Z,98.66
2019-04-24T04:18:50.271Z,99.14
2019-04-24T04:19:55.535Z,98.95
2019-04-24T04:22:04.306Z,98.95
2019-04-24T04:32:07.433Z,98.57
2019-04-24T04:33:13.809Z,98.57
2019-04-24T04:35:59.475Z,98.66
2019-04-24T04:38:01.626Z,98.95
2019-04-24T04:41:54.290Z,99.33
2019-04-24T04:44:10.173Z,99.57
2019-04-24T04:45:03.428Z,99.48
2019-04-24T04:47:03.798Z,99.86
2019-04-24T04:47:57.150Z,99.99
2019-04-24T04:51:54.709Z,99.99
2019-04-24T04:56:13.529Z,99.99
2019-04-24T04:56:51.879Z,99.99
2019-04-24T04:58:01.073Z,99.99
2019-04-24T04:59:58.624Z,99.99
2019-04-24T05:01:04.230Z,99.99
2019-04-24T05:02:01.879Z,99.99
2019-04-24T05:03:01.153Z,99.99
2019-04-24T05:03:48.846Z,99.99
2019-04-24T05:04:52.118Z,99.99
2019-04-24T05:08:23.243Z,99.99
2019-04-24T05:09:22.599Z,99.99
2019-04-24T05:12:49.524Z,99.99
2019-04-24T05:14:12.330Z,99.99
2019-04-24T05:16:00.561Z,99.99
2019-04-24T05:17:04.365Z,99.99
2019-04-24T05:19:06.840Z,99.99
2019-04-24T05:19:38.476Z,99.99
2019-04-24T05:22:56.066Z,99.99
2019-04-24T05:27:45.076Z,99.99
2019-04-24T05:28:55.441Z,99.99
2019-04-24T05:29:50.105Z,98.47
2019-04-24T05:31:49.023Z,94.12
2019-04-24T05:33:03.491Z,92.49
2019-04-24T05:34:58.250Z,91.34
2019-04-24T05:35:49.258Z,90.52
2019-04-24T05:36:49.710Z,89.27
2019-04-24T05:39:01.906Z,84.42
2019-04-24T05:43:53.683Z,85.53
2019-04-24T05:44:44.570Z,86.83
2019-04-24T05:46:43.457Z,88.37
2019-04-24T05:47:52.043Z,89.61
2019-04-24T05:49:57.549Z,91.96
2019-04-24T05:51:54.882Z,93.69
2019-04-24T05:53:49.809Z,93.69
2019-04-24T05:54:37.598Z,93.88
2019-04-24T05:58:41.590Z,95.03
2019-04-24T06:00:56.186Z,95.22
2019-04-24T06:04:08.821Z,95.22
2019-04-24T06:04:52.499Z,95.98
2019-04-24T06:05:57.035Z,95.89
2019-04-24T06:08:50.393Z,96.66
2019-04-24T06:09:42.820Z,96.37
2019-04-24T06:11:51.416Z,96.08
2019-04-24T06:14:43.219Z,95.22
2019-04-24T06:15:54.909Z,95.12
2019-04-24T06:17:50.653Z,95.70
2019-04-24T06:19:51.372Z,96.37
2019-04-24T06:21:00.423Z,96.56
2019-04-24T06:21:48.178Z,96.37
2019-04-24T06:22:52.174Z,96.75
2019-04-24T06:27:46.009Z,96.22
2019-04-24T06:29:45.646Z,96.99
2019-04-24T06:30:54.539Z,97.04
2019-04-24T06:34:00.682Z,97.85
2019-04-24T06:35:04.046Z,97.71
2019-04-24T06:35:58.931Z,97.47
2019-04-24T06:37:06.732Z,97.52
2019-04-24T06:37:50.084Z,97.75
2019-04-24T06:39:44.091Z,97.52
2019-04-24T06:41:53.500Z,97.61
2019-04-24T06:42:50.983Z,96.94
2019-04-24T06:43:45.314Z,97.33
2019-04-24T06:45:04.055Z,97.33
2019-04-24T06:45:41.074Z,97.04
2019-04-24T06:47:00.244Z,96.94
2019-04-24T06:48:37.862Z,97.42
2019-04-24T06:49:37.057Z,97.04
2019-04-24T06:52:01.870Z,97.52
2019-04-24T06:53:53.878Z,97.33
2019-04-24T06:58:40.454Z,97.42
2019-04-24T06:59:42.976Z,97.42
2019-04-24T07:01:45.295Z,97.33
2019-04-24T07:05:36.108Z,97.33
2019-04-24T07:08:38.076Z,97.04
2019-04-24T07:09:41.406Z,96.84
2019-04-24T07:10:54.343Z,97.42
2019-04-24T07:11:58.241Z,96.94
2019-04-24T07:12:43.157Z,96.37
2019-04-24T07:14:44.945Z,95.70
2019-04-24T07:15:56.435Z,95.75
2019-04-24T07:17:49.894Z,95.36
2019-04-24T07:18:34.651Z,95.31
2019-04-24T07:20:57.012Z,94.74
2019-04-24T07:21:43.476Z,94.45
2019-04-24T07:22:39.112Z,95.03
2019-04-24T07:23:47.510Z,95.03
2019-04-24T07:26:00.989Z,94.93
2019-04-24T07:26:45.898Z,94.69
2019-04-24T07:27:50.895Z,94.98
2019-04-24T07:29:49.247Z,94.31
2019-04-24T07:30:58.332Z,93.93
2019-04-24T07:31:54.111Z,94.12
2019-04-24T07:33:53.255Z,93.16
2019-04-24T07:34:59.612Z,93.16
2019-04-24T07:37:03.288Z,93.54
2019-04-24T07:38:41.156Z,92.58
2019-04-24T07:39:50.877Z,92.05
2019-04-24T07:40:55.492Z,91.67
2019-04-24T07:42:45.171Z,90.14
2019-04-24T07:43:46.881Z,91.00
2019-04-24T07:44:49.264Z,90.42
2019-04-24T07:45:47.015Z,89.18
2019-04-24T07:47:41.348Z,87.64
2019-04-24T07:48:56.527Z,87.55
2019-04-24T07:49:39.190Z,86.88
2019-04-24T07:50:54.341Z,86.49
2019-04-24T07:53:01.759Z,86.30
2019-04-24T07:54:05.272Z,85.25
2019-04-24T07:56:05.787Z,84.67
2019-04-24T07:57:01.183Z,84.48
2019-04-24T07:57:37.157Z,84.71
2019-04-24T07:59:05.539Z,84.81
2019-04-24T08:00:49.317Z,82.89
2019-04-24T08:02:00.794Z,82.31
2019-04-24T08:02:49.882Z,83.08
2019-04-24T08:03:55.556Z,83.65
2019-04-24T08:05:41.158Z,81.84
2019-04-24T08:06:51.115Z,81.35
2019-04-24T08:08:53.619Z,80.01
2019-04-24T08:11:51.494Z,78.09
2019-04-24T08:15:48.317Z,77.17
2019-04-24T08:16:41.449Z,75.63
2019-04-24T08:18:33.403Z,75.45
2019-04-24T08:20:49.849Z,75.82
2019-04-24T08:21:37.930Z,74.87
2019-04-24T08:22:44.393Z,74.87
2019-04-24T08:24:58.712Z,74.96
2019-04-24T08:25:41.864Z,75.73
2019-04-24T08:26:49.237Z,75.06
2019-04-24T08:27:48.437Z,74.71
2019-04-24T08:30:52.392Z,72.50
2019-04-24T08:31:44.380Z,72.50
2019-04-24T08:34:22.453Z,70.39
2019-04-24T08:34:52.113Z,69.34
2019-04-24T08:36:44.801Z,68.76
2019-04-24T08:39:15.393Z,68.60
2019-04-24T08:39:42.269Z,68.79
2019-04-24T08:40:53.341Z,67.99
2019-04-24T08:41:53.979Z,68.02
2019-04-24T08:43:09.935Z,68.12
2019-04-24T08:43:48.949Z,67.35
2019-04-24T08:44:56.287Z,67.64
2019-04-24T08:45:39.935Z,67.83
2019-04-24T08:47:55.511Z,66.68
2019-04-24T08:49:50.430Z,66.49
2019-04-24T08:51:09.264Z,66.39
2019-04-24T08:51:45.962Z,65.33
2019-04-24T08:54:44.783Z,64.98
2019-04-24T08:55:52.668Z,65.08
2019-04-24T08:56:51.692Z,65.17
2019-04-24T08:58:03.843Z,64.60
2019-04-24T08:58:43.524Z,63.09
2019-04-24T09:01:48.702Z,57.46
2019-04-24T09:02:55.052Z,53.97
2019-04-24T09:04:54.185Z,49.05
2019-04-24T09:06:47.331Z,46.53
2019-04-24T09:07:59.336Z,47.09
2019-04-24T09:09:49.379Z,48.21
2019-04-24T09:11:02.357Z,49.24
2019-04-24T09:13:57.870Z,51.99
2019-04-24T09:14:39.608Z,52.37
2019-04-24T09:15:59.514Z,53.13
2019-04-24T09:16:45.113Z,53.48
2019-04-24T09:18:51.837Z,53.48
2019-04-24T09:20:09.236Z,53.87
2019-04-24T09:20:53.883Z,53.29
2019-04-24T09:21:42.765Z,54.61
2019-04-24T09:22:42.408Z,54.71
2019-04-24T09:26:19.270Z,55.00
2019-04-24T09:27:54.613Z,55.19
2019-04-24T09:28:56.738Z,55.09
2019-04-24T09:30:43.264Z,54.52
2019-04-24T09:32:55.310Z,54.52
2019-04-24T09:34:53.941Z,54.90
2019-04-24T09:36:13.330Z,54.71
2019-04-24T09:36:55.591Z,54.32
2019-04-24T09:40:04.678Z,54.16
2019-04-24T09:41:06.279Z,54.64
2019-04-24T09:44:01.310Z,53.67
2019-04-24T09:44:51.078Z,53.58
2019-04-24T09:45:40.651Z,53.87
2019-04-24T09:46:53.341Z,53.19
2019-04-24T09:47:54.916Z,53.67
2019-04-24T09:49:56.411Z,53.77
2019-04-24T09:50:54.349Z,53.77
2019-04-24T09:51:50.037Z,53.48
2019-04-24T09:53:13.083Z,53.58
2019-04-24T09:54:49.968Z,53.31
2019-04-24T09:55:45.925Z,53.61
2019-04-24T09:57:51.123Z,53.39
2019-04-24T09:58:54.917Z,53.99
2019-04-24T09:59:41.731Z,53.31
2019-04-24T10:01:17.387Z,52.64
2019-04-24T10:02:56.049Z,52.55
2019-04-24T10:03:44.849Z,52.64
2019-04-24T10:05:00.862Z,51.97
2019-04-24T10:05:57.426Z,51.87
2019-04-24T10:07:09.822Z,51.39
2019-04-24T10:07:41.008Z,51.61
2019-04-24T10:08:39.745Z,51.32
2019-04-24T10:09:46.239Z,51.12
2019-04-24T10:10:58.822Z,51.41
2019-04-24T10:12:04.851Z,51.32
2019-04-24T10:13:43.292Z,51.51
2019-04-24T10:14:45.841Z,51.41
2019-04-24T10:16:55.461Z,51.70
2019-04-24T10:20:32.227Z,52.09
2019-04-24T10:21:43.940Z,51.22
2019-04-24T10:22:56.205Z,51.51
2019-04-24T10:23:48.610Z,50.64
2019-04-24T10:24:56.135Z,50.84
2019-04-24T10:25:33.301Z,50.76
2019-04-24T10:26:42.324Z,50.64
2019-04-24T10:29:13.702Z,50.38
2019-04-24T10:29:41.798Z,50.47
2019-04-24T10:30:50.395Z,50.38
2019-04-24T10:32:01.283Z,50.67
2019-04-24T10:32:44.759Z,50.47
2019-04-24T10:33:51.392Z,50.18
2019-04-24T10:34:43.647Z,50.09
2019-04-24T10:38:17.112Z,48.90
2019-04-24T10:38:43.190Z,47.31
2019-04-24T10:40:47.227Z,42.50
2019-04-24T10:41:56.520Z,40.79
2019-04-24T10:42:48.499Z,38.89
2019-04-24T10:43:47.758Z,37.93
2019-04-24T10:44:55.744Z,37.35
2019-04-24T10:45:36.836Z,37.27
2019-04-24T10:46:47.063Z,37.35
2019-04-24T10:48:45.859Z,38.11
2019-04-24T10:49:48.017Z,38.40
2019-04-24T10:50:49.601Z,38.87
2019-04-24T10:51:57.226Z,39.43
2019-04-24T10:52:46.247Z,39.80
2019-04-24T10:53:42.728Z,40.46
2019-04-24T10:54:48.754Z,40.25
2019-04-24T10:55:56.918Z,40.81
2019-04-24T10:57:49.750Z,41.66
2019-04-24T10:58:41.902Z,42.80
2019-04-24T10:59:49.466Z,43.09
2019-04-24T11:00:57.283Z,43.00
2019-04-24T11:02:46.900Z,44.13
2019-04-24T11:04:48.365Z,44.04
2019-04-24T11:04:54.893Z,44.53
2019-04-24T11:05:51.009Z,45.37
2019-04-24T11:06:52.589Z,45.18
2019-04-24T11:07:53.880Z,45.08
2019-04-24T11:08:54.357Z,44.98
2019-04-24T11:10:00.390Z,45.47
2019-04-24T11:10:45.665Z,45.47
2019-04-24T11:11:59.511Z,45.37
2019-04-24T11:12:53.590Z,45.47
2019-04-24T11:14:38.910Z,45.18
2019-04-24T11:17:51.536Z,45.18
2019-04-24T11:19:06.255Z,45.08
2019-04-24T11:19:49.263Z,44.60
2019-04-24T11:20:59.792Z,45.28
2019-04-24T11:22:39.016Z,45.95
2019-04-24T11:23:47.547Z,45.66
2019-04-24T11:24:45.315Z,46.05
2019-04-24T11:26:01.896Z,46.03
2019-04-24T11:26:45.659Z,46.12
2019-04-24T11:27:47.285Z,46.03
2019-04-24T11:28:44.493Z,46.05
2019-04-24T11:29:53.594Z,46.15
2019-04-24T11:30:44.356Z,45.93
2019-04-24T11:31:40.093Z,45.37
2019-04-24T11:34:10.624Z,45.95
2019-04-24T11:36:02.832Z,45.37
2019-04-24T11:36:53.138Z,45.18
2019-04-24T11:38:52.634Z,45.08
2019-04-24T11:40:14.276Z,45.28
2019-04-24T11:40:39.406Z,45.18
2019-04-24T11:41:49.527Z,45.57
2019-04-24T11:42:39.293Z,45.47
2019-04-24T11:43:50.514Z,45.37
2019-04-24T11:44:44.823Z,45.28
2019-04-24T11:45:47.719Z,45.37
2019-04-24T11:47:56.539Z,45.08
2019-04-24T11:48:53.111Z,45.66
2019-04-24T11:51:08.329Z,45.08
2019-04-24T11:53:03.103Z,44.50
2019-04-24T11:53:41.529Z,44.50
2019-04-24T11:54:59.262Z,44.50
2019-04-24T11:55:42.444Z,44.21
2019-04-24T11:56:48.075Z,44.02
2019-04-24T11:58:05.745Z,43.82
2019-04-24T11:59:24.931Z,44.02
2019-04-24T12:00:25.974Z,44.60
2019-04-24T12:01:46.366Z,44.40
2019-04-24T12:02:39.809Z,44.31
2019-04-24T12:03:38.684Z,44.12
2019-04-24T12:04:46.831Z,44.13
2019-04-24T12:06:46.683Z,43.46
2019-04-24T12:07:54.283Z,43.17
2019-04-24T12:08:56.482Z,42.88
2019-04-24T12:09:45.819Z,42.49
2019-04-24T12:12:42.667Z,42.88
2019-04-24T12:13:55.607Z,43.55
2019-04-24T12:14:45.018Z,44.13
2019-04-24T12:16:00.329Z,43.46
2019-04-24T12:16:50.240Z,43.75
2019-04-24T12:18:02.502Z,43.17
2019-04-24T12:18:49.050Z,43.46
2019-04-24T12:19:52.697Z,44.04
2019-04-24T12:20:50.105Z,43.55
2019-04-24T12:22:43.529Z,44.04
2019-04-24T12:23:55.330Z,43.95
2019-04-24T12:24:47.098Z,43.46
2019-04-24T12:26:37.525Z,44.13
2019-04-24T12:27:47.465Z,43.46
2019-04-24T12:28:52.555Z,44.33
2019-04-24T12:29:41.831Z,43.55
2019-04-24T12:30:46.775Z,43.55
2019-04-24T12:31:43.434Z,44.13
2019-04-24T12:32:36.866Z,43.17
2019-04-24T12:33:43.799Z,43.37
2019-04-24T12:34:44.157Z,42.68
2019-04-24T12:35:30.935Z,42.49
2019-04-24T12:36:51.850Z,43.07
2019-04-24T12:37:38.139Z,43.37
2019-04-24T12:39:45.851Z,43.65
2019-04-24T12:41:38.040Z,43.17
2019-04-24T12:43:02.422Z,43.00
2019-04-24T12:43:45.503Z,42.90
2019-04-24T12:44:39.387Z,41.83
2019-04-24T12:45:50.713Z,41.83
2019-04-24T12:46:53.763Z,41.91
2019-04-24T12:47:42.867Z,42.20
2019-04-24T12:48:49.075Z,42.59
2019-04-24T12:49:50.306Z,42.30
2019-04-24T12:50:45.479Z,42.32
2019-04-24T12:52:03.393Z,42.22
2019-04-24T12:52:36.013Z,42.03
2019-04-24T12:53:49.907Z,41.35
2019-04-24T12:55:45.387Z,41.55
2019-04-24T12:56:53.123Z,41.06
2019-04-24T12:59:41.271Z,41.25
2019-04-24T13:00:55.348Z,41.35
2019-04-24T13:01:42.534Z,41.45
2019-04-24T13:02:44.034Z,41.74
2019-04-24T13:03:48.157Z,41.35
2019-04-24T13:04:48.993Z,41.35
2019-04-24T13:05:43.595Z,41.25
2019-04-24T13:06:32.812Z,41.25
2019-04-24T13:07:56.894Z,40.58
2019-04-24T13:09:02.605Z,40.59
2019-04-24T13:09:49.370Z,40.96
2019-04-24T13:10:56.949Z,40.99
2019-04-24T13:11:51.493Z,41.08
2019-04-24T13:13:49.613Z,41.08
2019-04-24T13:14:51.959Z,40.79
2019-04-24T13:15:47.692Z,40.69
2019-04-24T13:17:05.142Z,40.59
2019-04-24T13:17:51.129Z,40.59
2019-04-24T13:18:51.264Z,40.79
2019-04-24T13:20:17.538Z,40.69
2019-04-24T13:21:23.037Z,40.50
2019-04-24T13:22:27.398Z,40.89
2019-04-24T13:23:29.006Z,40.79
2019-04-24T13:24:33.966Z,40.99
2019-04-24T13:25:43.263Z,40.40
2019-04-24T13:26:48.477Z,40.31
2019-04-24T13:27:55.059Z,40.01
2019-04-24T13:28:52.172Z,40.69
2019-04-24T13:29:52.560Z,40.89
2019-04-24T13:30:59.063Z,40.89
2019-04-24T13:31:42.541Z,41.17
2019-04-24T13:32:44.938Z,40.79
2019-04-24T13:33:38.645Z,40.69
2019-04-24T13:34:53.518Z,40.79
2019-04-24T13:35:52.638Z,41.27
2019-04-24T13:36:56.801Z,41.08
2019-04-24T13:37:55.652Z,40.89
2019-04-24T13:38:55.279Z,41.08
2019-04-24T13:39:49.250Z,41.27
2019-04-24T13:42:00.089Z,41.76
2019-04-24T13:42:52.555Z,41.27
2019-04-24T13:44:00.090Z,40.59
2019-04-24T13:45:01.438Z,40.69
2019-04-24T13:46:42.865Z,40.99
2019-04-24T13:47:50.588Z,41.08
2019-04-24T13:48:50.639Z,41.30
2019-04-24T13:49:50.433Z,41.00
2019-04-24T13:51:56.767Z,41.00
2019-04-24T13:53:56.732Z,41.78
2019-04-24T13:54:54.082Z,41.49
2019-04-24T13:55:43.302Z,41.58
2019-04-24T13:56:53.298Z,41.88
2019-04-24T13:57:55.078Z,41.78
2019-04-24T13:58:50.050Z,41.20
2019-04-24T13:59:56.721Z,41.10
2019-04-24T14:00:52.456Z,41.30
2019-04-24T14:04:03.417Z,40.81
2019-04-24T14:04:46.795Z,40.52
2019-04-24T14:05:58.742Z,41.10
2019-04-24T14:06:53.049Z,40.91
2019-04-24T14:08:02.824Z,40.71
2019-04-24T14:09:04.404Z,40.50
2019-04-24T14:11:58.068Z,40.61
2019-04-24T14:12:46.043Z,40.61
2019-04-24T14:13:55.301Z,41.10
2019-04-24T14:15:02.083Z,41.10
2019-04-24T14:15:53.357Z,41.10
2019-04-24T14:16:45.564Z,41.10
2019-04-24T14:17:55.167Z,41.10
2019-04-24T14:19:02.401Z,40.71
2019-04-24T14:19:53.437Z,39.74
2019-04-24T14:20:43.812Z,38.39
2019-04-24T14:21:56.424Z,37.41
2019-04-24T14:23:00.961Z,37.61
2019-04-24T14:23:46.924Z,37.90
2019-04-24T14:24:44.548Z,38.58
2019-04-24T14:25:54.258Z,38.39
2019-04-24T14:27:42.509Z,39.36
2019-04-24T14:28:46.524Z,39.16
2019-04-24T14:29:43.143Z,39.65
2019-04-24T14:30:59.312Z,39.26
2019-04-24T14:33:02.892Z,38.39
2019-04-24T14:33:46.613Z,38.58
2019-04-24T14:35:55.240Z,38.68
2019-04-24T14:37:58.877Z,38.96
2019-04-24T14:40:08.452Z,39.16
2019-04-24T14:40:45.706Z,39.55
2019-04-24T14:41:46.304Z,39.26
2019-04-24T14:42:54.252Z,38.99
2019-04-24T14:44:07.237Z,39.06
2019-04-24T14:44:51.577Z,38.96
2019-04-24T14:45:58.663Z,39.16
2019-04-24T14:46:53.726Z,39.16
2019-04-24T14:47:43.171Z,39.16
2019-04-24T14:48:41.997Z,39.06
2019-04-24T14:50:01.464Z,38.96
2019-04-24T14:50:43.630Z,38.70
2019-04-24T14:52:38.310Z,38.60
2019-04-24T14:53:54.636Z,38.31
2019-04-24T14:54:56.529Z,38.40
2019-04-24T14:55:50.626Z,38.39
2019-04-24T14:56:49.050Z,38.48
2019-04-24T14:57:44.053Z,38.48
2019-04-24T14:59:16.130Z,38.48
2019-04-24T15:02:58.962Z,38.68
2019-04-24T15:03:44.984Z,38.78
2019-04-24T15:04:47.322Z,38.87
2019-04-24T15:06:06.896Z,38.39
2019-04-24T15:06:54.292Z,38.48
2019-04-24T15:09:46.031Z,38.39
2019-04-24T15:10:44.331Z,38.48
2019-04-24T15:13:45.008Z,38.39
2019-04-24T15:14:51.101Z,38.48
2019-04-24T15:16:01.879Z,38.68
2019-04-24T15:17:46.300Z,37.71
2019-04-24T15:19:06.975Z,38.00
2019-04-24T15:19:54.980Z,37.81
2019-04-24T15:20:46.403Z,37.61
2019-04-24T15:21:56.675Z,37.41
2019-04-24T15:22:53.010Z,37.23
2019-04-24T15:24:02.129Z,37.32
2019-04-24T15:24:51.359Z,37.23
2019-04-24T15:25:58.686Z,37.41
2019-04-24T15:27:53.212Z,37.41
2019-04-24T15:28:56.914Z,37.41
2019-04-24T15:29:39.647Z,37.32
2019-04-24T15:30:47.096Z,37.61
2019-04-24T15:31:48.126Z,37.71
2019-04-24T15:32:57.033Z,37.90
2019-04-24T15:33:53.985Z,37.71
2019-04-24T15:34:49.851Z,38.19
2019-04-24T15:36:01.043Z,38.78
2019-04-24T15:36:45.775Z,38.39
2019-04-24T15:37:55.860Z,38.78
2019-04-24T15:38:52.007Z,38.68
2019-04-24T15:40:01.791Z,38.29
2019-04-24T15:41:09.111Z,38.39
2019-04-24T15:42:53.810Z,38.39
2019-04-24T15:43:47.963Z,38.39
2019-04-24T15:44:51.565Z,38.39
2019-04-24T15:45:50.074Z,38.48
2019-04-24T15:46:58.988Z,38.68
2019-04-24T15:48:00.980Z,38.39
2019-04-24T15:50:47.249Z,38.48
2019-04-24T15:51:34.098Z,38.48
2019-04-24T15:52:13.843Z,38.29
2019-04-24T15:53:13.864Z,38.29
2019-04-24T15:54:13.860Z,38.48
2019-04-24T15:55:13.855Z,38.68
2019-04-24T15:56:13.865Z,38.58
2019-04-24T15:57:13.868Z,38.78
2019-04-24T15:58:22.628Z,38.78
2019-04-24T15:59:36.869Z,38.68
2019-04-24T16:00:47.627Z,38.68
2019-04-24T16:01:46.277Z,38.50
2019-04-24T16:02:55.602Z,38.89
2019-04-24T16:05:14.517Z,39.16
2019-04-24T16:06:13.907Z,38.79
2019-04-24T16:07:13.938Z,38.78
2019-04-24T16:08:13.967Z,39.28
2019-04-24T16:09:14.042Z,39.16
2019-04-24T16:10:13.917Z,38.89
2019-04-24T16:11:13.919Z,38.87
2019-04-24T16:12:13.945Z,38.78
2019-04-24T16:13:19.494Z,38.87
2019-04-24T16:16:16.710Z,39.26
2019-04-24T16:17:11.215Z,39.45
2019-04-24T16:20:11.853Z,39.74
2019-04-24T16:22:12.695Z,39.45
2019-04-24T16:23:13.693Z,40.03
2019-04-24T16:25:14.117Z,40.61
2019-04-24T16:26:09.494Z,40.71
2019-04-24T16:27:14.338Z,40.81
2019-04-24T16:29:10.229Z,41.20
2019-04-24T16:30:09.145Z,41.20
2019-04-24T16:31:10.587Z,40.89
2019-04-24T16:32:30.855Z,40.71
2019-04-24T16:33:32.670Z,40.99
2019-04-24T16:34:09.821Z,41.10
2019-04-24T16:38:16.961Z,41.17
2019-04-24T16:40:29.969Z,41.56
2019-04-24T16:41:27.521Z,41.47
2019-04-24T16:42:16.969Z,41.86
2019-04-24T16:43:21.898Z,41.56
2019-04-24T16:44:30.311Z,41.76
2019-04-24T16:47:10.347Z,42.63
2019-04-24T16:49:18.098Z,42.34
2019-04-24T16:50:23.462Z,42.14
2019-04-24T16:53:12.505Z,42.54
2019-04-24T16:55:11.935Z,43.02
2019-04-24T16:56:17.981Z,43.41
2019-04-24T16:58:10.298Z,43.79
2019-04-24T16:59:02.708Z,43.41
2019-04-24T17:01:26.426Z,44.18
2019-04-24T17:02:05.571Z,44.16
2019-04-24T17:06:19.724Z,44.54
2019-04-24T17:10:19.218Z,44.84
2019-04-24T17:12:13.506Z,45.42
2019-04-24T17:13:20.836Z,45.42
2019-04-24T17:14:17.057Z,45.22
2019-04-24T17:15:09.061Z,44.84
2019-04-24T17:16:24.823Z,45.13
2019-04-24T17:18:28.215Z,45.68
2019-04-24T17:22:09.573Z,45.98
2019-04-24T17:24:22.442Z,45.98
2019-04-24T17:26:20.216Z,46.08
2019-04-24T17:27:14.785Z,46.17
2019-04-24T17:28:24.054Z,46.17
2019-04-24T17:31:18.766Z,47.24
2019-04-24T17:32:19.523Z,46.94
2019-04-24T17:34:22.481Z,46.83
2019-04-24T17:35:14.345Z,47.11
2019-04-24T17:36:19.601Z,47.41
2019-04-24T17:37:41.258Z,47.89
2019-04-24T17:38:41.278Z,47.89
2019-04-24T17:39:41.264Z,47.69
2019-04-24T17:40:42.868Z,47.89
2019-04-24T17:41:48.798Z,47.99
2019-04-24T17:43:05.152Z,47.99
2019-04-24T17:45:18.229Z,48.18
2019-04-24T17:46:12.526Z,48.66
2019-04-24T17:49:16.288Z,48.37
2019-04-24T17:52:27.771Z,48.54
2019-04-24T17:53:11.792Z,49.22
2019-04-24T17:54:11.214Z,49.32
2019-04-24T17:55:01.522Z,49.32
2019-04-24T17:56:08.493Z,48.93
2019-04-24T17:57:43.137Z,49.60
2019-04-24T17:58:42.908Z,49.51
2019-04-24T17:59:42.874Z,49.70
2019-04-24T18:00:43.872Z,49.60
2019-04-24T18:01:41.370Z,49.80
2019-04-24T18:02:42.247Z,50.09
2019-04-24T18:03:42.243Z,50.18
2019-04-24T18:04:41.666Z,50.07
2019-04-24T18:05:41.366Z,50.65
2019-04-24T18:06:42.347Z,50.45
2019-04-24T18:07:41.574Z,50.35
2019-04-24T18:08:41.356Z,50.45
2019-04-24T18:09:41.892Z,50.35
2019-04-24T18:10:41.847Z,50.74
2019-04-24T18:11:41.781Z,50.55
2019-04-24T18:12:41.804Z,50.84
2019-04-24T18:13:42.194Z,50.55